sensor_id;sensor_type;location;lat;lon;timestamp;P1;durP1;ratioP1;P2;durP2;ratioP2
57718;SDS011;43561;50.090;18.522;2023-10-13T00:07:40;47.03;;;25.73;;
57718;SDS011;43561;50.090;18.522;2023-10-13T00:17:43;47.97;;;27.83;;
57718;SDS011;43561;50.090;18.522;2023-10-13T00:27:44;44.53;;;28.63;;
57718;SDS011;43561;50.090;18.522;2023-10-13T00:37:46;40.15;;;26.65;;
57718;SDS011;43561;50.090;18.522;2023-10-13T00:47:48;48.88;;;29.27;;
57718;SDS011;43561;50.090;18.522;2023-10-13T00:57:53;42.28;;;27.42;;
57718;SDS011;43561;50.090;18.522;2023-10-13T01:08:02;72.65;;;35.97;;
57718;SDS011;43561;50.090;18.522;2023-10-13T01:18:07;51.08;;;36.35;;
57718;SDS011;43561;50.090;18.522;2023-10-13T01:28:10;49.17;;;33.65;;
57718;SDS011;43561;50.090;18.522;2023-10-13T01:38:13;44.05;;;30.88;;
57718;SDS011;43561;50.090;18.522;2023-10-13T01:48:16;48.83;;;29.00;;
57718;SDS011;43561;50.090;18.522;2023-10-13T01:58:18;35.00;;;24.10;;
57718;SDS011;43561;50.090;18.522;2023-10-13T02:08:21;46.13;;;25.27;;
57718;SDS011;43561;50.090;18.522;2023-10-13T02:18:28;37.90;;;22.83;;
57718;SDS011;43561;50.090;18.522;2023-10-13T02:28:31;37.13;;;22.20;;
57718;SDS011;43561;50.090;18.522;2023-10-13T02:38:33;30.88;;;18.80;;
57718;SDS011;43561;50.090;18.522;2023-10-13T02:48:35;25.98;;;19.13;;
57718;SDS011;43561;50.090;18.522;2023-10-13T02:58:37;30.48;;;18.17;;
57718;SDS011;43561;50.090;18.522;2023-10-13T03:08:39;28.73;;;18.67;;
57718;SDS011;43561;50.090;18.522;2023-10-13T03:18:42;30.67;;;17.83;;
57718;SDS011;43561;50.090;18.522;2023-10-13T03:28:45;29.80;;;19.13;;
57718;SDS011;43561;50.090;18.522;2023-10-13T03:38:47;22.42;;;17.65;;
57718;SDS011;43561;50.090;18.522;2023-10-13T03:48:49;30.08;;;19.10;;
57718;SDS011;43561;50.090;18.522;2023-10-13T03:58:51;71.43;;;41.85;;
57718;SDS011;43561;50.090;18.522;2023-10-13T04:08:54;40.72;;;27.67;;
57718;SDS011;43561;50.090;18.522;2023-10-13T04:18:56;41.08;;;26.08;;
57718;SDS011;43561;50.090;18.522;2023-10-13T04:28:58;35.60;;;20.40;;
57718;SDS011;43561;50.090;18.522;2023-10-13T04:39:00;47.60;;;22.35;;
57718;SDS011;43561;50.090;18.522;2023-10-13T04:49:02;38.95;;;23.35;;
57718;SDS011;43561;50.090;18.522;2023-10-13T04:59:04;30.15;;;20.08;;
57718;SDS011;43561;50.090;18.522;2023-10-13T05:09:06;26.25;;;19.15;;
57718;SDS011;43561;50.090;18.522;2023-10-13T05:19:08;38.30;;;24.15;;
57718;SDS011;43561;50.090;18.522;2023-10-13T05:29:10;27.10;;;20.00;;
57718;SDS011;43561;50.090;18.522;2023-10-13T05:39:28;27.10;;;19.77;;
57718;SDS011;43561;50.090;18.522;2023-10-13T05:49:30;35.97;;;22.77;;
57718;SDS011;43561;50.090;18.522;2023-10-13T05:59:35;43.72;;;23.92;;
57718;SDS011;43561;50.090;18.522;2023-10-13T06:09:38;36.63;;;24.73;;
57718;SDS011;43561;50.090;18.522;2023-10-13T06:19:40;37.42;;;21.88;;
57718;SDS011;43561;50.090;18.522;2023-10-13T06:29:42;38.58;;;22.80;;
57718;SDS011;43561;50.090;18.522;2023-10-13T06:39:44;34.28;;;22.00;;
57718;SDS011;43561;50.090;18.522;2023-10-13T06:49:47;27.25;;;20.23;;
57718;SDS011;43561;50.090;18.522;2023-10-13T06:59:49;36.08;;;21.63;;
57718;SDS011;43561;50.090;18.522;2023-10-13T07:09:51;24.27;;;18.50;;
57718;SDS011;43561;50.090;18.522;2023-10-13T07:19:53;38.83;;;22.10;;
57718;SDS011;43561;50.090;18.522;2023-10-13T07:29:56;25.85;;;17.42;;
57718;SDS011;43561;50.090;18.522;2023-10-13T07:39:58;26.10;;;15.57;;
57718;SDS011;43561;50.090;18.522;2023-10-13T07:50:00;17.35;;;13.70;;
57718;SDS011;43561;50.090;18.522;2023-10-13T08:00:02;21.95;;;13.23;;
57718;SDS011;43561;50.090;18.522;2023-10-13T08:10:11;19.10;;;9.40;;
57718;SDS011;43561;50.090;18.522;2023-10-13T08:20:13;22.52;;;10.80;;
57718;SDS011;43561;50.090;18.522;2023-10-13T08:30:19;25.00;;;12.23;;
57718;SDS011;43561;50.090;18.522;2023-10-13T08:40:24;16.73;;;12.07;;
57718;SDS011;43561;50.090;18.522;2023-10-13T08:50:28;17.97;;;12.50;;
57718;SDS011;43561;50.090;18.522;2023-10-13T09:00:30;24.65;;;13.52;;
57718;SDS011;43561;50.090;18.522;2023-10-13T09:10:34;24.75;;;12.93;;
57718;SDS011;43561;50.090;18.522;2023-10-13T09:20:36;27.02;;;11.40;;
57718;SDS011;43561;50.090;18.522;2023-10-13T09:30:42;16.08;;;11.15;;
57718;SDS011;43561;50.090;18.522;2023-10-13T09:40:44;17.50;;;11.93;;
57718;SDS011;43561;50.090;18.522;2023-10-13T09:50:47;15.68;;;9.95;;
57718;SDS011;43561;50.090;18.522;2023-10-13T10:00:51;11.90;;;9.10;;
57718;SDS011;43561;50.090;18.522;2023-10-13T10:10:56;10.75;;;7.97;;
57718;SDS011;43561;50.090;18.522;2023-10-13T10:21:05;15.85;;;10.68;;
57718;SDS011;43561;50.090;18.522;2023-10-13T10:31:08;14.95;;;10.05;;
57718;SDS011;43561;50.090;18.522;2023-10-13T10:41:14;17.98;;;9.43;;
57718;SDS011;43561;50.090;18.522;2023-10-13T10:51:16;13.52;;;9.88;;
57718;SDS011;43561;50.090;18.522;2023-10-13T11:01:17;18.15;;;10.95;;
57718;SDS011;43561;50.090;18.522;2023-10-13T11:11:32;18.55;;;9.70;;
57718;SDS011;43561;50.090;18.522;2023-10-13T11:21:34;19.33;;;9.85;;
57718;SDS011;43561;50.090;18.522;2023-10-13T11:31:36;11.50;;;8.52;;
57718;SDS011;43561;50.090;18.522;2023-10-13T11:41:38;14.85;;;7.95;;
57718;SDS011;43561;50.090;18.522;2023-10-13T11:51:40;16.33;;;7.63;;
57718;SDS011;43561;50.090;18.522;2023-10-13T12:01:43;12.63;;;6.93;;
57718;SDS011;43561;50.090;18.522;2023-10-13T12:11:49;11.20;;;7.43;;
57718;SDS011;43561;50.090;18.522;2023-10-13T12:21:52;20.98;;;12.05;;
57718;SDS011;43561;50.090;18.522;2023-10-13T12:31:55;13.00;;;6.10;;
57718;SDS011;43561;50.090;18.522;2023-10-13T12:42:35;18.90;;;7.35;;
57718;SDS011;43561;50.090;18.522;2023-10-13T12:52:57;6.82;;;6.15;;
57718;SDS011;43561;50.090;18.522;2023-10-13T13:03:35;11.35;;;6.30;;
57718;SDS011;43561;50.090;18.522;2023-10-13T13:13:41;10.15;;;5.95;;
57718;SDS011;43561;50.090;18.522;2023-10-13T13:23:57;12.85;;;6.03;;
57718;SDS011;43561;50.090;18.522;2023-10-13T13:35:01;10.27;;;6.25;;
57718;SDS011;43561;50.090;18.522;2023-10-13T13:45:50;16.92;;;7.65;;
57718;SDS011;43561;50.090;18.522;2023-10-13T13:56:04;15.40;;;7.70;;
57718;SDS011;43561;50.090;18.522;2023-10-13T14:16:20;11.48;;;7.88;;
57718;SDS011;43561;50.090;18.522;2023-10-13T14:26:26;14.27;;;8.73;;
57718;SDS011;43561;50.090;18.522;2023-10-13T14:36:28;34.30;;;17.88;;
57718;SDS011;43561;50.090;18.522;2023-10-13T14:46:32;15.55;;;9.63;;
57718;SDS011;43561;50.090;18.522;2023-10-13T16:17:34;15.35;;;10.35;;
57718;SDS011;43561;50.090;18.522;2023-10-13T17:26:31;19.10;;;13.23;;
57718;SDS011;43561;50.090;18.522;2023-10-13T17:36:34;21.98;;;13.00;;
57718;SDS011;43561;50.090;18.522;2023-10-13T18:21:47;25.67;;;12.38;;
57718;SDS011;43561;50.090;18.522;2023-10-13T18:56:03;28.33;;;15.32;;
57718;SDS011;43561;50.090;18.522;2023-10-13T19:07:19;26.80;;;13.88;;
57718;SDS011;43561;50.090;18.522;2023-10-13T22:24:05;25.17;;;14.07;;
57718;SDS011;43561;50.090;18.522;2023-10-13T22:35:37;22.90;;;14.90;;
57718;SDS011;43561;50.090;18.522;2023-10-13T22:46:32;28.17;;;16.00;;
57718;SDS011;43561;50.090;18.522;2023-10-13T22:57:18;29.42;;;16.67;;
57718;SDS011;43561;50.090;18.522;2023-10-13T23:08:11;31.58;;;18.88;;
57718;SDS011;43561;50.090;18.522;2023-10-13T23:18:36;26.33;;;19.45;;
57718;SDS011;43561;50.090;18.522;2023-10-13T23:29:14;36.00;;;17.60;;
57718;SDS011;43561;50.090;18.522;2023-10-13T23:39:17;37.33;;;15.93;;
57718;SDS011;43561;50.090;18.522;2023-10-13T23:49:20;19.92;;;11.82;;
57718;SDS011;43561;50.090;18.522;2023-10-13T23:59:44;25.35;;;12.13;;
